Terminal Aerodrome Forecast
Issued by NWS

Home | Current Version | Previous Version | Text Only | Print | Product List | Glossary On
Versions: 1 2 3 4 5 6 7 8 9 10 11 12 13 14 15 16 17 18 19 20
000
FTUS43 KFGF 272300
TAFBJI
TAF
KBJI 272320Z 2800/2824 26007KT 5SM -RA OVC030
     FM280800 28008KT P6SM BKN025
     FM281300 29014KT P6SM VCSH OVC025
     FM281500 29016G21KT P6SM OVC010
     FM281800 30017G24KT P6SM OVC012=

USA.gov is the U.S. government's official web portal to all federal, state and local government web resources and services.